Terminal Aerodrome Forecast
Issued by NWS Upton, NY

Home | Current Version | Previous Version | Text Only | Print | Product List | Glossary On
Versions: 1 2 3 4 5 6 7 8 9 10 11 12 13 14 15 16 17 18 19 20 21 22 23 24 25 26 27 28 29 30 31
000
FTUS41 KOKX 130500
TAFJFK
TAF
KJFK 130540Z 1306/1412 19008KT P6SM SCT005 SCT100 BKN250
      TEMPO 1307/1311 5SM BR BKN005
     FM131400 19013G20KT P6SM FEW060 SCT150 BKN250
     FM131600 18014G22KT P6SM SCT060 BKN150
     FM131900 18019G25KT P6SM BKN060 BKN150
     FM140000 19013KT P6SM FEW006 BKN060 BKN100
     FM140600 19008KT 4SM BR SCT006 BKN040 BKN080=

USA.gov is the U.S. government's official web portal to all federal, state and local government web resources and services.